createdAt,value
2022-12-26T00:00:17.666Z,100089.38
2022-12-26T00:01:09.850Z,100092.75
2022-12-26T00:01:57.478Z,100100.19
2022-12-26T00:02:44.472Z,100097.09
2022-12-26T00:03:31.581Z,100097.06
2022-12-26T00:04:51.149Z,100097.44
2022-12-26T00:05:26.208Z,100087.47
2022-12-26T00:06:15.814Z,100100.53
2022-12-26T00:07:02.787Z,100101.00
2022-12-26T00:07:49.673Z,100094.78
2022-12-26T00:08:39.330Z,100105.47
2022-12-26T00:09:26.290Z,100092.25
2022-12-26T00:10:13.279Z,100095.97
2022-12-26T00:11:00.238Z,100087.16
2022-12-26T00:11:47.184Z,100102.72
2022-12-26T00:12:36.094Z,100090.59
2022-12-26T00:13:40.231Z,100094.25
2022-12-26T00:14:27.913Z,100096.22
2022-12-26T00:15:14.853Z,100094.72
2022-12-26T00:16:13.710Z,100087.69
2022-12-26T00:17:00.725Z,100086.72
2022-12-26T00:17:47.583Z,100106.13
2022-12-26T00:18:34.769Z,100088.22
2022-12-26T00:19:21.648Z,100096.66
2022-12-26T00:20:09.161Z,100094.94
2022-12-26T00:20:56.080Z,100097.91
2022-12-26T00:21:43.008Z,100097.66
2022-12-26T00:22:29.925Z,100096.44
2022-12-26T00:23:16.879Z,100091.78
2022-12-26T00:24:04.471Z,100093.63
2022-12-26T00:24:51.715Z,100097.69
2022-12-26T00:25:38.697Z,100099.22
2022-12-26T00:26:30.290Z,100101.06
2022-12-26T00:27:17.248Z,100109.66
2022-12-26T00:28:04.294Z,100105.91
2022-12-26T00:28:51.516Z,100101.72
2022-12-26T00:29:38.443Z,100100.41
2022-12-26T00:30:25.774Z,100109.69
2022-12-26T00:31:27.628Z,100103.62
2022-12-26T00:32:14.607Z,100084.13
2022-12-26T00:33:01.577Z,100096.56
2022-12-26T00:33:48.613Z,100091.37
2022-12-26T00:34:35.525Z,100092.41
2022-12-26T00:35:22.459Z,100089.06
2022-12-26T00:36:13.237Z,100095.28
2022-12-26T00:37:00.147Z,100093.66
2022-12-26T00:37:47.065Z,100104.13
2022-12-26T00:38:38.039Z,100099.56
2022-12-26T00:39:27.048Z,100100.28
2022-12-26T00:40:13.919Z,100094.22
2022-12-26T00:41:01.046Z,100100.16
2022-12-26T00:41:47.926Z,100102.19
2022-12-26T00:42:34.865Z,100098.13
2022-12-26T00:43:21.779Z,100103.81
2022-12-26T00:44:08.792Z,100091.34
2022-12-26T00:44:55.833Z,100100.81
2022-12-26T00:45:45.299Z,100102.00
2022-12-26T00:46:32.377Z,100099.34
2022-12-26T00:47:19.317Z,100107.19
2022-12-26T00:48:06.367Z,100094.03
2022-12-26T00:48:53.715Z,100100.97
2022-12-26T00:50:12.540Z,100102.63
2022-12-26T00:50:47.637Z,100108.66
2022-12-26T00:51:34.519Z,100109.00
2022-12-26T00:52:22.030Z,100111.41
2022-12-26T00:53:08.978Z,100111.25
2022-12-26T00:53:55.892Z,100114.22
2022-12-26T00:54:42.935Z,100118.25
2022-12-26T00:55:29.876Z,100117.28
2022-12-26T00:56:16.972Z,100112.13
2022-12-26T00:57:03.986Z,100113.81
2022-12-26T00:57:50.958Z,100124.78
2022-12-26T00:58:38.087Z,100115.50
2022-12-26T00:59:25.147Z,100120.25
2022-12-26T01:00:12.900Z,100114.00
2022-12-26T01:01:16.889Z,100114.38
2022-12-26T01:02:23.938Z,100111.00
2022-12-26T01:03:12.323Z,100110.12
2022-12-26T01:03:59.375Z,100108.59
2022-12-26T01:04:46.278Z,100106.72
2022-12-26T01:05:33.247Z,100115.81
2022-12-26T01:06:23.242Z,100118.22
2022-12-26T01:07:10.127Z,100117.22
2022-12-26T01:08:20.545Z,100116.56
2022-12-26T01:09:03.960Z,100111.34
2022-12-26T01:09:50.869Z,100106.81
2022-12-26T01:10:41.107Z,100115.37
2022-12-26T01:11:43.125Z,100104.09
2022-12-26T01:12:30.884Z,100110.50
2022-12-26T01:13:17.814Z,100103.78
2022-12-26T01:14:05.403Z,100111.87
2022-12-26T01:14:54.827Z,100102.09
2022-12-26T01:15:48.860Z,100101.41
2022-12-26T01:16:35.854Z,100116.94
2022-12-26T01:17:22.926Z,100103.94
2022-12-26T01:18:09.816Z,100099.03
2022-12-26T01:18:56.780Z,100104.09
2022-12-26T01:19:43.624Z,100101.19
2022-12-26T01:20:30.776Z,100108.59
2022-12-26T01:21:17.704Z,100099.03
2022-12-26T01:22:04.622Z,100105.91
2022-12-26T01:22:51.517Z,100111.87
2022-12-26T01:23:38.435Z,100107.31
2022-12-26T01:24:25.319Z,100105.44
2022-12-26T01:25:12.416Z,100105.28
2022-12-26T01:26:18.945Z,100105.94
2022-12-26T01:27:06.336Z,100102.78
2022-12-26T01:27:53.279Z,100112.88
2022-12-26T01:28:40.176Z,100113.06
2022-12-26T01:29:27.076Z,100105.94
2022-12-26T01:30:14.051Z,100107.63
2022-12-26T01:31:04.666Z,100110.34
2022-12-26T01:31:51.428Z,100108.47
2022-12-26T01:32:40.757Z,100117.94
2022-12-26T01:33:27.699Z,100118.75
2022-12-26T01:34:14.619Z,100116.84
2022-12-26T01:35:01.545Z,100111.41
2022-12-26T01:35:53.238Z,100117.53
2022-12-26T01:36:40.216Z,100109.13
2022-12-26T01:37:27.839Z,100107.28
2022-12-26T01:38:14.819Z,100112.50
2022-12-26T01:39:48.756Z,100114.69
2022-12-26T01:40:35.727Z,100107.12
2022-12-26T01:41:22.629Z,100114.03
2022-12-26T01:42:17.908Z,100115.25
2022-12-26T01:43:06.618Z,100107.34
2022-12-26T01:43:55.270Z,100108.34
2022-12-26T01:45:02.652Z,100107.34
2022-12-26T01:45:51.221Z,100105.66
2022-12-26T01:46:44.637Z,100106.69
2022-12-26T01:47:41.857Z,100103.78
2022-12-26T01:48:34.669Z,100107.38
2022-12-26T01:49:31.019Z,100099.31
2022-12-26T01:50:56.185Z,100102.97
2022-12-26T01:51:57.966Z,100097.72
2022-12-26T01:52:47.308Z,100110.53
2022-12-26T01:53:40.586Z,100097.72
2022-12-26T01:54:40.773Z,100100.25
2022-12-26T01:55:30.293Z,100104.00
2022-12-26T01:56:22.654Z,100101.63
2022-12-26T01:57:17.978Z,100096.59
2022-12-26T01:58:13.217Z,100095.09
2022-12-26T01:59:07.407Z,100095.78
2022-12-26T01:59:55.757Z,100097.44
2022-12-26T02:00:42.997Z,100097.41
2022-12-26T02:01:32.480Z,100101.44
2022-12-26T02:02:21.201Z,100097.06
2022-12-26T02:03:27.712Z,100092.34
2022-12-26T02:04:36.566Z,100108.50
2022-12-26T02:05:35.647Z,100102.66
2022-12-26T02:06:22.751Z,100109.06
2022-12-26T02:07:09.928Z,100115.31
2022-12-26T02:07:57.149Z,100116.13
2022-12-26T02:08:45.427Z,100116.13
2022-12-26T02:09:32.708Z,100117.78
2022-12-26T02:10:23.156Z,100123.56
2022-12-26T02:11:35.455Z,100112.06
2022-12-26T02:12:41.228Z,100119.13
2022-12-26T02:13:29.965Z,100122.88
2022-12-26T02:14:16.856Z,100126.03
2022-12-26T02:15:05.929Z,100128.25
2022-12-26T02:15:52.967Z,100122.19
2022-12-26T02:16:40.344Z,100123.34
2022-12-26T02:17:27.935Z,100119.16
2022-12-26T02:18:17.101Z,100116.16
2022-12-26T02:19:05.047Z,100117.66
2022-12-26T02:20:07.546Z,100120.19
2022-12-26T02:21:18.875Z,100114.13
2022-12-26T02:22:12.635Z,100108.75
2022-12-26T02:23:33.534Z,100106.34
2022-12-26T02:24:58.847Z,100104.19
2022-12-26T02:26:07.107Z,100104.72
2022-12-26T02:27:27.716Z,100106.56
2022-12-26T02:28:35.471Z,100107.41
2022-12-26T02:29:27.871Z,100110.91
2022-12-26T02:30:36.638Z,100115.47
2022-12-26T02:31:49.692Z,100117.16
2022-12-26T02:33:02.443Z,100113.81
2022-12-26T02:34:20.009Z,100113.84
2022-12-26T02:35:39.430Z,100102.69
2022-12-26T02:36:51.266Z,100099.66
2022-12-26T02:37:53.223Z,100104.53
2022-12-26T02:39:44.329Z,100105.56
2022-12-26T02:40:15.677Z,100100.66
2022-12-26T02:41:29.746Z,100096.47
2022-12-26T02:42:42.621Z,100106.22
2022-12-26T02:43:57.535Z,100103.03
2022-12-26T02:45:28.226Z,100098.47
2022-12-26T02:47:00.528Z,100096.28
2022-12-26T02:48:09.834Z,100101.50
2022-12-26T02:49:05.418Z,100101.50
2022-12-26T02:50:17.837Z,100099.97
2022-12-26T02:51:35.799Z,100103.34
2022-12-26T02:52:48.978Z,100110.91
2022-12-26T02:54:12.245Z,100109.41
2022-12-26T02:55:26.148Z,100113.31
2022-12-26T02:56:42.743Z,100112.09
2022-12-26T02:57:54.955Z,100109.41
2022-12-26T02:59:13.747Z,100105.37
2022-12-26T03:00:19.264Z,100107.91
2022-12-26T03:01:31.659Z,100102.19
2022-12-26T03:02:46.764Z,100097.66
2022-12-26T03:03:53.973Z,100101.03
2022-12-26T03:05:00.434Z,100097.47
2022-12-26T03:06:19.455Z,100094.78
2022-12-26T03:07:32.697Z,100107.06
2022-12-26T03:08:47.181Z,100104.87
2022-12-26T03:09:57.044Z,100109.75
2022-12-26T03:11:03.080Z,100107.91
2022-12-26T03:12:12.220Z,100111.13
2022-12-26T03:13:12.015Z,100114.16
2022-12-26T03:14:08.241Z,100110.28
2022-12-26T03:14:58.595Z,100111.63
2022-12-26T03:16:26.773Z,100117.53
2022-12-26T03:17:26.970Z,100110.97
2022-12-26T03:18:13.908Z,100106.41
2022-12-26T03:19:05.496Z,100114.16
2022-12-26T03:20:02.561Z,100118.37
2022-12-26T03:20:49.929Z,100120.53
2022-12-26T03:21:45.868Z,100120.91
2022-12-26T03:22:53.191Z,100117.53
2022-12-26T03:23:41.932Z,100125.94
2022-12-26T03:24:48.827Z,100120.06
2022-12-26T03:25:54.465Z,100129.97
2022-12-26T03:26:52.050Z,100131.16
2022-12-26T03:27:38.971Z,100138.38
2022-12-26T03:28:26.405Z,100138.87
2022-12-26T03:29:40.767Z,100144.28
2022-12-26T03:30:46.361Z,100144.78
2022-12-26T03:31:33.494Z,100141.78
2022-12-26T03:32:20.397Z,100142.44
2022-12-26T03:33:27.830Z,100145.13
2022-12-26T03:34:17.439Z,100146.31
2022-12-26T03:35:12.921Z,100144.12
2022-12-26T03:36:00.814Z,100141.63
2022-12-26T03:38:11.768Z,100143.59
2022-12-26T03:39:12.319Z,100134.69
2022-12-26T03:40:23.897Z,100145.47
2022-12-26T03:41:52.815Z,100143.44
2022-12-26T03:43:23.590Z,100138.91
2022-12-26T03:44:39.329Z,100133.69
2022-12-26T03:46:13.694Z,100129.31
2022-12-26T03:47:43.064Z,100139.25
2022-12-26T03:48:57.137Z,100123.06
2022-12-26T03:50:10.020Z,100127.12
2022-12-26T03:51:24.598Z,100125.78
2022-12-26T03:52:43.167Z,100121.22
2022-12-26T03:53:51.604Z,100125.44
2022-12-26T03:57:11.490Z,100128.44
2022-12-26T03:58:50.870Z,100133.66
2022-12-26T04:00:02.988Z,100127.44
2022-12-26T04:01:13.841Z,100128.97
2022-12-26T04:02:29.081Z,100128.28
2022-12-26T04:03:36.176Z,100136.34
2022-12-26T04:04:43.916Z,100139.56
2022-12-26T04:05:49.939Z,100144.09
2022-12-26T04:07:18.436Z,100137.88
2022-12-26T04:08:31.917Z,100132.00
2022-12-26T04:09:48.127Z,100130.31
2022-12-26T04:11:00.238Z,100132.84
2022-12-26T04:12:05.655Z,100136.72
2022-12-26T04:13:11.961Z,100134.19
2022-12-26T04:14:39.998Z,100133.69
2022-12-26T04:16:02.412Z,100141.78
2022-12-26T04:17:19.707Z,100142.63
2022-12-26T04:18:39.815Z,100140.91
2022-12-26T04:19:52.033Z,100139.06
2022-12-26T04:20:51.938Z,100137.38
2022-12-26T04:22:21.363Z,100132.50
2022-12-26T04:23:39.832Z,100128.78
2022-12-26T04:24:48.138Z,100123.06
2022-12-26T04:26:13.971Z,100125.97
2022-12-26T04:27:21.524Z,100127.47
2022-12-26T04:28:27.117Z,100126.44
2022-12-26T04:29:32.708Z,100136.19
2022-12-26T04:30:38.188Z,100138.41
2022-12-26T04:31:53.416Z,100133.34
2022-12-26T04:33:02.697Z,100134.00
2022-12-26T04:34:12.763Z,100138.38
2022-12-26T04:35:28.857Z,100138.91
2022-12-26T04:36:39.667Z,100139.41
2022-12-26T04:37:47.624Z,100150.84
2022-12-26T04:39:01.476Z,100148.50
2022-12-26T04:40:11.880Z,100150.38
2022-12-26T04:41:19.274Z,100137.91
2022-12-26T04:42:25.797Z,100148.00
2022-12-26T04:43:50.443Z,100141.78
2022-12-26T04:44:38.740Z,100135.72
2022-12-26T04:45:26.674Z,100137.06
2022-12-26T04:46:14.585Z,100138.06
2022-12-26T04:47:01.502Z,100131.84
2022-12-26T04:48:10.442Z,100136.72
2022-12-26T04:49:17.028Z,100136.91
2022-12-26T04:50:13.227Z,100134.03
2022-12-26T04:51:00.150Z,100152.19
2022-12-26T04:51:50.055Z,100147.69
2022-12-26T04:52:55.576Z,100141.41
2022-12-26T04:53:42.555Z,100141.41
2022-12-26T04:54:32.601Z,100152.69
2022-12-26T04:55:19.566Z,100157.25
2022-12-26T04:56:06.629Z,100149.69
2022-12-26T04:56:53.768Z,100136.72
2022-12-26T04:57:40.648Z,100133.16
2022-12-26T04:58:30.538Z,100126.78
2022-12-26T04:59:18.010Z,100131.31
2022-12-26T05:00:05.711Z,100135.19
2022-12-26T05:00:52.667Z,100148.16
2022-12-26T05:01:58.450Z,100145.97
2022-12-26T05:03:03.983Z,100149.69
2022-12-26T05:04:09.837Z,100152.56
2022-12-26T05:05:15.617Z,100128.63
2022-12-26T05:06:21.315Z,100143.13
2022-12-26T05:07:34.331Z,100140.75
2022-12-26T05:09:00.637Z,100135.69
2022-12-26T05:09:51.110Z,100147.66
2022-12-26T05:10:38.184Z,100154.41
2022-12-26T05:11:25.871Z,100163.63
2022-12-26T05:12:12.848Z,100156.56
2022-12-26T05:12:59.790Z,100161.63
2022-12-26T05:13:47.238Z,100156.91
2022-12-26T05:14:36.185Z,100165.34
2022-12-26T05:15:23.253Z,100161.12
2022-12-26T05:16:29.043Z,100157.06
2022-12-26T05:17:34.758Z,100160.59
2022-12-26T05:18:41.890Z,100159.63
2022-12-26T05:19:47.301Z,100159.44
2022-12-26T05:20:46.678Z,100162.47
2022-12-26T05:21:52.471Z,100165.50
2022-12-26T05:23:01.721Z,100165.00
2022-12-26T05:24:07.051Z,100161.97
2022-12-26T05:25:12.986Z,100154.38
2022-12-26T05:26:20.216Z,100162.44
2022-12-26T05:27:31.574Z,100154.03
2022-12-26T05:28:37.467Z,100151.00
2022-12-26T05:29:25.896Z,100160.94
2022-12-26T05:30:12.827Z,100169.69
2022-12-26T05:31:02.203Z,100169.34
2022-12-26T05:31:49.190Z,100163.78
2022-12-26T05:32:54.726Z,100171.34
2022-12-26T05:34:00.321Z,100163.13
2022-12-26T05:34:47.184Z,100169.00
2022-12-26T05:35:34.876Z,100166.28
2022-12-26T05:36:23.806Z,100162.56
2022-12-26T05:37:10.717Z,100168.63
2022-12-26T05:37:57.696Z,100173.19
2022-12-26T05:38:44.590Z,100174.84
2022-12-26T05:39:31.530Z,100171.81
2022-12-26T05:40:18.453Z,100157.03
2022-12-26T05:41:05.775Z,100158.87
2022-12-26T05:41:52.678Z,100163.94
2022-12-26T05:42:39.634Z,100161.22
2022-12-26T05:43:26.696Z,100158.16
2022-12-26T05:44:13.775Z,100164.25
2022-12-26T05:45:00.669Z,100164.75
2022-12-26T05:45:47.566Z,100164.91
2022-12-26T05:46:35.155Z,100164.94
2022-12-26T05:47:22.990Z,100172.31
2022-12-26T05:48:09.947Z,100176.69
2022-12-26T05:48:57.062Z,100163.06
2022-12-26T05:49:43.960Z,100161.84
2022-12-26T05:50:30.959Z,100165.56
2022-12-26T05:51:17.853Z,100164.41
2022-12-26T05:52:04.992Z,100162.56
2022-12-26T05:52:51.932Z,100157.50
2022-12-26T05:53:38.785Z,100155.13
2022-12-26T05:54:25.767Z,100155.28
2022-12-26T05:55:12.676Z,100163.06
2022-12-26T05:56:05.307Z,100162.19
2022-12-26T05:56:53.829Z,100153.09
2022-12-26T05:57:40.708Z,100158.00
2022-12-26T05:58:27.607Z,100155.16
2022-12-26T05:59:14.530Z,100156.63
2022-12-26T06:00:01.447Z,100153.44
2022-12-26T06:00:48.446Z,100154.59
2022-12-26T06:01:35.538Z,100158.16
2022-12-26T06:02:22.598Z,100146.66
2022-12-26T06:03:09.781Z,100149.34
2022-12-26T06:03:58.320Z,100146.66
2022-12-26T06:04:45.380Z,100147.38
2022-12-26T06:05:32.304Z,100150.91
2022-12-26T06:06:20.298Z,100142.37
2022-12-26T06:07:07.238Z,100149.88
2022-12-26T06:07:54.183Z,100150.91
2022-12-26T06:08:41.429Z,100142.88
2022-12-26T06:09:28.394Z,100150.75
2022-12-26T06:10:15.430Z,100148.94
2022-12-26T06:11:10.328Z,100148.75
2022-12-26T06:11:57.243Z,100155.00
2022-12-26T06:12:45.192Z,100150.75
2022-12-26T06:13:32.524Z,100142.31
2022-12-26T06:14:19.438Z,100145.66
2022-12-26T06:15:07.044Z,100147.88
2022-12-26T06:15:56.849Z,100143.03
2022-12-26T06:16:43.969Z,100144.72
2022-12-26T06:17:30.936Z,100148.91
2022-12-26T06:18:17.872Z,100145.53
2022-12-26T06:19:05.177Z,100146.03
2022-12-26T06:19:52.119Z,100146.03
2022-12-26T06:20:41.707Z,100143.50
2022-12-26T06:21:28.649Z,100146.88
2022-12-26T06:22:15.575Z,100142.19
2022-12-26T06:23:02.549Z,100144.84
2022-12-26T06:23:50.227Z,100148.53
2022-12-26T06:24:37.128Z,100138.81
2022-12-26T06:25:24.179Z,100144.72
2022-12-26T06:26:12.824Z,100146.84
2022-12-26T06:26:59.771Z,100154.91
2022-12-26T06:27:46.830Z,100152.56
2022-12-26T06:28:35.441Z,100145.19
2022-12-26T06:29:22.398Z,100149.72
2022-12-26T06:30:09.665Z,100152.56
2022-12-26T06:31:03.549Z,100157.28
2022-12-26T06:31:50.537Z,100158.94
2022-12-26T06:32:39.552Z,100161.63
2022-12-26T06:33:26.597Z,100162.47
2022-12-26T06:34:13.738Z,100162.31
2022-12-26T06:35:00.664Z,100165.50
2022-12-26T06:35:47.594Z,100169.56
2022-12-26T06:36:34.554Z,100167.19
2022-12-26T06:37:21.462Z,100173.41
2022-12-26T06:38:08.423Z,100173.72
2022-12-26T06:38:55.801Z,100177.75
2022-12-26T06:39:42.687Z,100175.53
2022-12-26T06:40:29.601Z,100175.72
2022-12-26T06:41:20.737Z,100167.19
2022-12-26T06:42:07.652Z,100168.84
2022-12-26T06:42:54.576Z,100175.87
2022-12-26T06:43:41.734Z,100176.25
2022-12-26T06:44:28.728Z,100172.25
2022-12-26T06:45:15.636Z,100172.56
2022-12-26T06:46:04.382Z,100172.56
2022-12-26T06:46:51.321Z,100176.13
2022-12-26T06:47:38.270Z,100180.63
2022-12-26T06:48:25.411Z,100183.97
2022-12-26T06:49:12.291Z,100182.34
2022-12-26T06:49:59.185Z,100191.88
2022-12-26T06:50:46.066Z,100189.03
2022-12-26T06:51:33.797Z,100186.88
2022-12-26T06:52:20.699Z,100188.50
2022-12-26T06:53:07.599Z,100191.72
2022-12-26T06:53:55.255Z,100195.09
2022-12-26T06:54:42.187Z,100196.97
2022-12-26T06:55:29.177Z,100196.31
2022-12-26T06:56:24.766Z,100199.84
2022-12-26T06:57:11.717Z,100196.13
2022-12-26T06:57:58.596Z,100197.31
2022-12-26T06:58:51.597Z,100189.22
2022-12-26T06:59:38.469Z,100201.28
2022-12-26T07:00:25.439Z,100197.63
2022-12-26T07:01:15.175Z,100200.13
2022-12-26T07:02:02.374Z,100199.50
2022-12-26T07:02:50.773Z,100199.66
2022-12-26T07:03:38.387Z,100199.31
2022-12-26T07:04:25.833Z,100191.91
2022-12-26T07:05:14.588Z,100197.50
2022-12-26T07:06:11.428Z,100208.25
2022-12-26T07:07:00.921Z,100208.09
2022-12-26T07:07:52.599Z,100203.25
2022-12-26T07:08:39.529Z,100204.75
2022-12-26T07:09:33.198Z,100209.97
2022-12-26T07:10:21.235Z,100207.25
2022-12-26T07:11:14.677Z,100208.84
2022-12-26T07:12:01.665Z,100211.19
2022-12-26T07:12:50.949Z,100214.41
2022-12-26T07:13:37.865Z,100210.37
2022-12-26T07:14:24.796Z,100212.75
2022-12-26T07:15:12.052Z,100209.44
2022-12-26T07:16:00.217Z,100210.09
2022-12-26T07:16:47.221Z,100212.47
2022-12-26T07:17:34.185Z,100217.38
2022-12-26T07:18:21.139Z,100212.50
2022-12-26T07:19:09.718Z,100216.19
2022-12-26T07:19:56.679Z,100216.37
2022-12-26T07:20:43.578Z,100216.22
2022-12-26T07:21:36.358Z,100226.09
2022-12-26T07:22:26.899Z,100214.31
2022-12-26T07:23:13.896Z,100222.19
2022-12-26T07:24:00.810Z,100221.03
2022-12-26T07:24:47.700Z,100219.34
2022-12-26T07:25:37.586Z,100219.41
2022-12-26T07:26:26.264Z,100219.87
2022-12-26T07:27:13.167Z,100212.16
2022-12-26T07:28:00.741Z,100216.84
2022-12-26T07:28:47.881Z,100222.75
2022-12-26T07:29:34.997Z,100221.41
2022-12-26T07:30:22.031Z,100219.16
2022-12-26T07:31:09.037Z,100219.69
2022-12-26T07:31:57.834Z,100224.25
2022-12-26T07:32:44.950Z,100225.91
2022-12-26T07:33:32.059Z,100224.28
2022-12-26T07:34:19.088Z,100220.41
2022-12-26T07:35:06.339Z,100217.75
2022-12-26T07:35:53.365Z,100222.31
2022-12-26T07:36:40.925Z,100215.56
2022-12-26T07:37:27.791Z,100218.09
2022-12-26T07:38:14.725Z,100208.53
2022-12-26T07:39:01.645Z,100213.41
2022-12-26T07:39:52.390Z,100214.09
2022-12-26T07:40:42.145Z,100211.25
2022-12-26T07:41:48.429Z,100220.00
2022-12-26T07:42:35.427Z,100213.28
2022-12-26T07:43:22.601Z,100215.16
2022-12-26T07:44:10.775Z,100215.81
2022-12-26T07:44:57.712Z,100214.50
2022-12-26T07:45:46.044Z,100211.13
2022-12-26T07:46:33.592Z,100215.50
2022-12-26T07:47:20.767Z,100214.34
2022-12-26T07:48:07.962Z,100218.38
2022-12-26T07:48:54.887Z,100217.38
2022-12-26T07:49:41.844Z,100216.19
2022-12-26T07:50:29.274Z,100220.56
2022-12-26T07:51:18.003Z,100223.00
2022-12-26T07:52:05.097Z,100224.00
2022-12-26T07:52:52.215Z,100223.16
2022-12-26T07:53:39.216Z,100219.06
2022-12-26T07:54:28.385Z,100219.91
2022-12-26T07:55:15.529Z,100226.84
2022-12-26T07:56:04.060Z,100217.56
2022-12-26T07:56:50.929Z,100220.63
2022-12-26T07:57:48.588Z,100219.94
2022-12-26T07:58:36.252Z,100222.12
2022-12-26T07:59:23.207Z,100222.12
2022-12-26T08:00:13.517Z,100226.84
2022-12-26T08:01:04.567Z,100220.44
2022-12-26T08:01:51.964Z,100224.66
2022-12-26T08:02:39.166Z,100225.12
2022-12-26T08:03:26.197Z,100231.88
2022-12-26T08:04:13.830Z,100229.53
2022-12-26T08:05:00.718Z,100226.13
2022-12-26T08:05:51.094Z,100228.50
2022-12-26T08:06:38.207Z,100229.31
2022-12-26T08:07:25.125Z,100228.81
2022-12-26T08:08:12.056Z,100238.94
2022-12-26T08:08:59.005Z,100230.34
2022-12-26T08:09:46.122Z,100243.81
2022-12-26T08:10:33.044Z,100236.06
2022-12-26T08:11:22.963Z,100249.34
2022-12-26T08:12:10.019Z,100234.97
2022-12-26T08:12:56.887Z,100249.00
2022-12-26T08:13:43.837Z,100245.97
2022-12-26T08:14:30.770Z,100246.94
2022-12-26T08:15:17.766Z,100256.03
2022-12-26T08:16:09.403Z,100249.28
2022-12-26T08:16:56.443Z,100255.75
2022-12-26T08:17:43.441Z,100260.78
2022-12-26T08:18:30.369Z,100262.94
2022-12-26T08:19:19.663Z,100265.31
2022-12-26T08:20:07.235Z,100260.63
2022-12-26T08:20:54.181Z,100258.56
2022-12-26T08:21:41.143Z,100262.09
2022-12-26T08:22:28.199Z,100266.00
2022-12-26T08:23:15.118Z,100268.56
2022-12-26T08:24:02.101Z,100271.53
2022-12-26T08:24:48.988Z,100269.28
2022-12-26T08:25:35.928Z,100272.34
2022-12-26T08:26:23.569Z,100265.75
2022-12-26T08:27:10.990Z,100270.47
2022-12-26T08:27:57.876Z,100273.81
2022-12-26T08:28:44.812Z,100269.44
2022-12-26T08:29:31.795Z,100271.13
2022-12-26T08:30:18.667Z,100276.50
2022-12-26T08:31:10.818Z,100268.03
2022-12-26T08:31:57.726Z,100269.72
2022-12-26T08:32:46.336Z,100277.16
2022-12-26T08:33:36.390Z,100280.53
2022-12-26T08:34:23.347Z,100278.63
2022-12-26T08:35:10.334Z,100288.47
2022-12-26T08:36:02.389Z,100281.84
2022-12-26T08:36:52.727Z,100278.28
2022-12-26T08:37:39.657Z,100275.75
2022-12-26T08:38:31.943Z,100279.41
2022-12-26T08:39:27.775Z,100275.38
2022-12-26T08:40:15.572Z,100284.97
2022-12-26T08:41:06.239Z,100286.59
2022-12-26T08:41:53.199Z,100282.75
2022-12-26T08:42:50.048Z,100285.44
2022-12-26T08:44:25.171Z,100283.38
2022-12-26T08:44:49.884Z,100281.28
2022-12-26T08:45:36.820Z,100283.78
2022-12-26T08:46:23.886Z,100287.97
2022-12-26T08:47:10.846Z,100286.31
2022-12-26T08:47:58.446Z,100284.41
2022-12-26T08:48:45.980Z,100287.75
2022-12-26T08:49:32.915Z,100293.03
2022-12-26T08:50:19.936Z,100288.50
2022-12-26T08:51:18.019Z,100282.56
2022-12-26T08:52:06.688Z,100281.25
2022-12-26T08:52:53.588Z,100291.13
2022-12-26T08:53:40.959Z,100284.09
2022-12-26T08:54:28.467Z,100284.44
2022-12-26T08:55:15.445Z,100290.56
2022-12-26T08:56:06.768Z,100285.84
2022-12-26T08:56:53.635Z,100288.50
2022-12-26T08:57:40.611Z,100294.31
2022-12-26T08:58:29.203Z,100293.44
2022-12-26T08:59:16.429Z,100286.00
2022-12-26T09:00:06.231Z,100289.62
2022-12-26T09:00:55.387Z,100287.81
2022-12-26T09:01:42.729Z,100289.44
2022-12-26T09:02:29.843Z,100287.06
2022-12-26T09:03:17.134Z,100288.91
2022-12-26T09:04:04.775Z,100292.44
2022-12-26T09:04:52.159Z,100286.47
2022-12-26T09:05:39.069Z,100288.47
2022-12-26T09:06:26.820Z,100288.03
2022-12-26T09:07:15.896Z,100292.78
2022-12-26T09:08:02.816Z,100288.47
2022-12-26T09:08:49.781Z,100299.62
2022-12-26T09:09:36.830Z,100299.03
2022-12-26T09:10:23.771Z,100293.25
2022-12-26T09:11:15.877Z,100288.50
2022-12-26T09:12:02.807Z,100287.69
2022-12-26T09:12:49.717Z,100289.75
2022-12-26T09:13:37.527Z,100285.97
2022-12-26T09:14:24.445Z,100280.19
2022-12-26T09:15:11.356Z,100282.34
2022-12-26T09:16:05.938Z,100289.78
2022-12-26T09:16:54.551Z,100286.34
2022-12-26T09:17:41.531Z,100285.63
2022-12-26T09:18:28.479Z,100287.63
2022-12-26T09:19:19.366Z,100286.75
2022-12-26T09:20:06.957Z,100289.47
2022-12-26T09:20:53.837Z,100290.44
2022-12-26T09:21:40.931Z,100286.53
2022-12-26T09:23:12.329Z,100276.72
2022-12-26T09:24:01.183Z,100271.97
2022-12-26T09:24:48.106Z,100266.06
2022-12-26T09:25:35.193Z,100271.69
2022-12-26T09:26:22.049Z,100274.22
2022-12-26T09:27:09.390Z,100270.91
2022-12-26T09:27:59.298Z,100271.37
2022-12-26T09:28:47.279Z,100273.56
2022-12-26T09:29:34.243Z,100272.69
2022-12-26T09:30:22.703Z,100274.16
2022-12-26T09:31:21.583Z,100276.38
2022-12-26T09:32:08.524Z,100270.41
2022-12-26T09:32:55.641Z,100272.91
2022-12-26T09:33:42.769Z,100274.37
2022-12-26T09:34:29.614Z,100271.97
2022-12-26T09:35:16.633Z,100275.16
2022-12-26T09:36:14.291Z,100279.19
2022-12-26T09:37:01.691Z,100268.63
2022-12-26T09:37:48.581Z,100272.06
2022-12-26T09:38:37.684Z,100265.44
2022-12-26T09:39:24.596Z,100271.50
2022-12-26T09:40:23.873Z,100270.50
2022-12-26T09:41:46.114Z,100263.44
2022-12-26T09:42:42.044Z,100260.53
2022-12-26T09:43:57.781Z,100255.78
2022-12-26T09:44:44.680Z,100243.28
2022-12-26T09:45:52.875Z,100242.91
2022-12-26T09:46:49.311Z,100245.72
2022-12-26T09:47:54.281Z,100247.09
2022-12-26T09:48:55.039Z,100250.03
2022-12-26T09:49:56.273Z,100243.84
2022-12-26T09:50:43.606Z,100243.00
2022-12-26T09:51:32.175Z,100242.91
2022-12-26T09:52:22.654Z,100236.28
2022-12-26T09:53:13.098Z,100245.62
2022-12-26T09:54:00.975Z,100247.00
2022-12-26T09:54:56.900Z,100249.69
2022-12-26T09:55:53.406Z,100246.31
2022-12-26T09:57:51.405Z,100245.53
2022-12-26T09:58:45.340Z,100238.72
2022-12-26T09:59:55.864Z,100245.13
2022-12-26T10:00:49.461Z,100241.78
2022-12-26T10:01:37.491Z,100241.44
2022-12-26T10:02:26.735Z,100248.06
2022-12-26T10:03:13.691Z,100238.97
2022-12-26T10:04:01.409Z,100255.97
2022-12-26T10:04:48.635Z,100247.50
2022-12-26T10:05:44.683Z,100248.91
2022-12-26T10:06:38.381Z,100246.47
2022-12-26T10:07:54.564Z,100244.97
2022-12-26T10:09:00.126Z,100239.28
2022-12-26T10:09:55.579Z,100237.97
2022-12-26T10:11:03.494Z,100243.19
2022-12-26T10:12:05.832Z,100252.53
2022-12-26T10:12:59.569Z,100245.44
2022-12-26T10:14:00.351Z,100242.53
2022-12-26T10:14:59.369Z,100241.50
2022-12-26T10:15:51.404Z,100242.66
2022-12-26T10:16:51.365Z,100252.16
2022-12-26T10:17:45.151Z,100238.41
2022-12-26T10:18:50.654Z,100245.62